Green Fast — ZDHA9 — position and weather

sailwx.info

Track history (hours):
 
Tides and Currents Weather Stations Pressure Air Temp Water Temp Dewpoint Dewpoint Depression Visibility Wind Speed Wind Dir Waves Ship Positions

Green Fast

Last reported at 2014-Oct-23 18:31 UTC. Time now 2014-Oct-23 18:36 UTC.
Position N 41°01' E 001°26'.

Length 118 m; draft 5.6 m.

Type: Ship (hazmat cat A). MMSI: 236294000.

Date/timePositionNaut miles runAvg speedWind from/ knotsBaromVisibWave heightAir tempDewpointWater temp
2014-Oct-23 18:31N 41°01' E 001°26'2512.2
2014-Oct-23 16:27N 40°57' E 001°59'1211.7
2014-Oct-23 15:26N 40°56' E 002°15'1212.2
2014-Oct-23 14:28N 40°55' E 002°31'1312.2
2014-Oct-23 13:22N 40°54' E 002°49'1512.4
2014-Oct-23 12:12N 40°54' E 003°08'1110.5
2014-Oct-23 11:10N 40°53' E 003°22'226 5.5
2014-Oct-21 18:19N 39°04' E 007°41'3711.9
2014-Oct-21 15:11N 38°50' E 008°25'1911.7
2014-Oct-21 13:32N 38°50' E 008°50'1111.6
2014-Oct-21 12:33N 38°56' E 009°02'1211.9
2014-Oct-21 11:33N 39°07' E 009°07'6 6.0
2014-Oct-21 10:33N 39°13' E 009°04'0 0.0
2014-Oct-21 09:33N 39°13' E 009°04'0 0.0
2014-Oct-21 08:33N 39°13' E 009°04'0 0.0
2014-Oct-21 07:33N 39°13' E 009°04'0 0.0
2014-Oct-21 06:33N 39°13' E 009°04'0 0.0
2014-Oct-21 05:33N 39°13' E 009°04'0 0.1
2014-Oct-21 04:34N 39°13' E 009°04'7 7.0
2014-Oct-21 03:33N 39°07' E 009°08'1010.5
2014-Oct-21 02:34N 39°02' E 009°21'1110.5
2014-Oct-21 01:32N 38°58' E 009°33'2411.1
2014-Oct-20 23:26N 38°49' E 010°01'96 2.1
2014-Oct-19 00:33N 37°28' E 011°08'1312.6
2014-Oct-18 23:33N 37°19' E 010°57'1312.6
2014-Oct-18 22:33N 37°10' E 010°46'1312.5
2014-Oct-18 21:32N 37°00' E 010°36'1412.3
2014-Oct-18 20:24N 36°50' E 010°24'7 7.6
2014-Oct-18 19:31N 36°48' E 010°16'0 0.0
2014-Oct-18 18:16N 36°48' E 010°16'  
2014-Oct-14 23:31N 36°47' E 010°25'  
Track history (hours):
 
Tides and Currents Weather Stations Pressure Air Temp Water Temp Dewpoint Dewpoint Depression Visibility Wind Speed Wind Dir Waves Ship Positions

Green Fast

Last reported at 2014-Oct-23 18:31 UTC. Time now 2014-Oct-23 18:36 UTC.
Position N 41°01' E 001°26'.

Length 118 m; draft 5.6 m.

Type: Ship (hazmat cat A). MMSI: 236294000.

Date/timePositionNaut miles runAvg speedWind from/ knotsBaromVisibWave heightAir tempDewpointWater temp
2014-Oct-23 18:31N 41°01' E 001°26'2512.2
2014-Oct-23 16:27N 40°57' E 001°59'1211.7
2014-Oct-23 15:26N 40°56' E 002°15'1212.2
2014-Oct-23 14:28N 40°55' E 002°31'1312.2
2014-Oct-23 13:22N 40°54' E 002°49'1512.4
2014-Oct-23 12:12N 40°54' E 003°08'1110.5
2014-Oct-23 11:10N 40°53' E 003°22'226 5.5
2014-Oct-21 18:19N 39°04' E 007°41'3711.9
2014-Oct-21 15:11N 38°50' E 008°25'1911.7
2014-Oct-21 13:32N 38°50' E 008°50'1111.6
2014-Oct-21 12:33N 38°56' E 009°02'1211.9
2014-Oct-21 11:33N 39°07' E 009°07'6 6.0
2014-Oct-21 10:33N 39°13' E 009°04'0 0.0
2014-Oct-21 09:33N 39°13' E 009°04'0 0.0
2014-Oct-21 08:33N 39°13' E 009°04'0 0.0
2014-Oct-21 07:33N 39°13' E 009°04'0 0.0
2014-Oct-21 06:33N 39°13' E 009°04'0 0.0
2014-Oct-21 05:33N 39°13' E 009°04'0 0.1
2014-Oct-21 04:34N 39°13' E 009°04'7 7.0
2014-Oct-21 03:33N 39°07' E 009°08'1010.5
2014-Oct-21 02:34N 39°02' E 009°21'1110.5
2014-Oct-21 01:32N 38°58' E 009°33'2411.1
2014-Oct-20 23:26N 38°49' E 010°01'96 2.1
2014-Oct-19 00:33N 37°28' E 011°08'1312.6
2014-Oct-18 23:33N 37°19' E 010°57'1312.6
2014-Oct-18 22:33N 37°10' E 010°46'1312.5
2014-Oct-18 21:32N 37°00' E 010°36'1412.3
2014-Oct-18 20:24N 36°50' E 010°24'7 7.6
2014-Oct-18 19:31N 36°48' E 010°16'0 0.0
2014-Oct-18 18:16N 36°48' E 010°16'  
2014-Oct-14 23:31N 36°47' E 010°25'  

Dump ship's entire track history